WC StCyr

Date de la prise de vue : 27/10/2021 04:54:25
Et voilĂ  le METAR et le TAF :
2021/10/27 02:30 LFPN 270230Z AUTO 24001KT CAVOK 07/07 Q1025
2021/10/26 21:12 TAF TAF LFPN 262108Z 2621/2703 CNL